This is the latest recevied weather packets stored in our database for station/object WX3I. If no packets are shown the sender has not sent any weather packets the latest 10 day(s).
| Time | Temp. | Humidity | Pressure | Rain* | Wind** | Luminosity | Snow |
|---|---|---|---|---|---|---|---|
| 1777400404 | 15° C | 49% | 1021.4 hPa | 0 mm | - | 1131 W/m² | - |
| 1777397404 | 15° C | 47% | 1021.8 hPa | 0 mm | - | 1165 W/m² | - |
| 1777396804 | 15° C | 48% | 1022 hPa | 0 mm | - | 1164 W/m² | - |
| 1777396504 | 15° C | 48% | 1022.1 hPa | 0 mm | - | 1162 W/m² | - |
| 1777395604 | 14.44° C | 48% | 1022.1 hPa | 0 mm | - | 1153 W/m² | - |
| 1777394704 | 14.44° C | 49% | 1022.3 hPa | 0 mm | - | 1138 W/m² | - |
| 1777393805 | 13.89° C | 50% | 1022.7 hPa | 0 mm | - | 1118 W/m² | - |
| 1777392004 | 13.33° C | 47% | 1022.8 hPa | 0 mm | - | 1060 W/m² | - |
| 1777391405 | 13.33° C | 48% | 1022.9 hPa | 0 mm | - | 1036 W/m² | - |
| 1777387804 | 13.89° C | 50% | 1023.5 hPa | 0 mm | - | 855 W/m² | - |
| 1777386004 | 13.33° C | 49% | 1023.1 hPa | 0 mm | - | 746 W/m² | - |
| 1777385105 | 13.33° C | 49% | 1023.1 hPa | 0 mm | - | 688 W/m² | - |
| 1777381204 | 12.22° C | 58% | 1023.3 hPa | 0 mm | - | 434 W/m² | - |
| 1777379104 | 11.67° C | 61% | 1023 hPa | 0 mm | - | 303 W/m² | - |
| 1777374604 | 7.22° C | 78% | 1023.6 hPa | 0 mm | - | 48 W/m² | - |
| 1777374305 | 7.22° C | 78% | 1023.6 hPa | 0 mm | - | 38 W/m² | - |
| 1777368904 | 6.11° C | 81% | 1023.2 hPa | 0 mm | - | 0 W/m² | - |
| 1777362904 | 6.67° C | 76% | 1024.3 hPa | 0 mm | - | 0 W/m² | - |
| 1777361104 | 6.67° C | 75% | 1024 hPa | 0 mm | - | 0 W/m² | - |
| 1777359004 | 7.22° C | 74% | 1024.4 hPa | 0 mm | - | 0 W/m² | - |
| 1777358105 | 7.78° C | 71% | 1024.2 hPa | 0 mm | - | 0 W/m² | - |
| 1777354204 | 9.44° C | 66% | 1025.2 hPa | 0 mm | - | 0 W/m² | - |
| 1777353604 | 9.44° C | 65% | 1025.2 hPa | 0 mm | - | 0 W/m² | - |
| 1777352405 | 10° C | 66% | 1025.3 hPa | 0 mm | - | 0 W/m² | - |
| 1777351504 | 10° C | 65% | 1025.5 hPa | 0 mm | - | 0 W/m² | - |
* Rain latest hour (hover to see other rain measurements)
** Current wind speed in m/s (hover to see current wind gust speed)